createdAt,value
2018-08-31T00:02:13.563Z,99.90
2018-08-31T00:04:53.325Z,99.90
2018-08-31T00:07:34.060Z,99.90
2018-08-31T00:12:18.984Z,99.90
2018-08-31T00:14:47.351Z,99.90
2018-08-31T00:17:15.750Z,99.90
2018-08-31T00:19:44.131Z,99.90
2018-08-31T00:22:12.470Z,99.90
2018-08-31T00:25:53.734Z,99.90
2018-08-31T00:29:36.020Z,99.90
2018-08-31T00:34:19.019Z,99.90
2018-08-31T00:37:00.059Z,99.90
2018-08-31T00:39:40.323Z,99.90
2018-08-31T00:42:20.937Z,99.90
2018-08-31T00:45:01.200Z,99.90
2018-08-31T00:47:29.707Z,99.90
2018-08-31T00:49:58.133Z,99.90
2018-08-31T00:52:26.540Z,99.90
2018-08-31T00:54:54.880Z,99.90
2018-08-31T00:57:23.245Z,99.90
2018-08-31T00:59:51.585Z,99.90
2018-08-31T01:02:19.944Z,99.90
2018-08-31T01:04:48.296Z,99.90
2018-08-31T01:07:16.694Z,99.90
2018-08-31T01:09:45.154Z,99.90
2018-08-31T01:12:13.532Z,99.90
2018-08-31T01:14:41.866Z,99.90
2018-08-31T01:17:10.294Z,99.90
2018-08-31T01:19:38.650Z,99.90
2018-08-31T01:22:07.356Z,99.90
2018-08-31T01:24:35.787Z,99.90
2018-08-31T01:27:04.157Z,99.90
2018-08-31T01:29:32.525Z,99.90
2018-08-31T01:32:01.054Z,99.90
2018-08-31T01:34:29.490Z,99.90
2018-08-31T01:36:57.842Z,99.90
2018-08-31T01:39:26.240Z,99.90
2018-08-31T01:41:54.659Z,99.90
2018-08-31T01:44:23.001Z,99.90
2018-08-31T01:46:52.010Z,99.90
2018-08-31T01:49:20.435Z,99.90
2018-08-31T01:51:48.809Z,99.90
2018-08-31T01:54:17.174Z,99.90
2018-08-31T01:56:45.558Z,99.90
2018-08-31T01:59:13.897Z,99.90
2018-08-31T02:01:42.336Z,99.90
2018-08-31T02:04:10.806Z,99.90
2018-08-31T02:06:39.177Z,99.90
2018-08-31T02:09:12.966Z,99.90
2018-08-31T02:11:41.339Z,99.90
2018-08-31T02:14:09.721Z,99.90
2018-08-31T02:16:42.329Z,99.90
2018-08-31T02:19:10.822Z,99.90
2018-08-31T02:21:39.194Z,99.90
2018-08-31T02:24:07.929Z,99.90
2018-08-31T02:26:36.602Z,99.90
2018-08-31T02:29:04.969Z,99.90
2018-08-31T02:31:33.363Z,99.90
2018-08-31T02:34:01.760Z,99.90
2018-08-31T02:36:30.138Z,99.90
2018-08-31T02:38:58.475Z,99.90
2018-08-31T02:41:26.831Z,99.90
2018-08-31T02:43:55.239Z,99.90
2018-08-31T02:46:23.602Z,99.90
2018-08-31T02:48:52.799Z,99.90
2018-08-31T02:51:21.532Z,99.90
2018-08-31T02:53:49.897Z,99.90
2018-08-31T02:56:18.280Z,99.90
2018-08-31T02:58:46.685Z,99.90
2018-08-31T03:01:15.050Z,99.90
2018-08-31T03:03:43.393Z,99.90
2018-08-31T03:06:11.870Z,99.90
2018-08-31T03:08:40.381Z,99.90
2018-08-31T03:11:08.802Z,99.90
2018-08-31T03:13:37.135Z,99.90
2018-08-31T03:16:05.517Z,99.90
2018-08-31T03:18:34.323Z,99.90
2018-08-31T03:21:02.685Z,99.90
2018-08-31T03:23:31.059Z,99.90
2018-08-31T03:25:59.389Z,99.90
2018-08-31T03:28:27.743Z,99.90
2018-08-31T03:30:56.097Z,99.90
2018-08-31T03:33:24.458Z,99.90
2018-08-31T03:35:52.785Z,99.90
2018-08-31T03:38:21.152Z,99.90
2018-08-31T03:40:50.098Z,99.90
2018-08-31T03:43:18.565Z,99.90
2018-08-31T03:45:46.916Z,99.90
2018-08-31T03:48:15.257Z,99.90
2018-08-31T03:50:43.640Z,99.90
2018-08-31T03:53:12.006Z,99.90
2018-08-31T03:55:40.370Z,99.90
2018-08-31T03:58:08.714Z,99.90
2018-08-31T04:00:38.381Z,99.90
2018-08-31T04:03:06.767Z,99.90
2018-08-31T04:05:35.111Z,99.90
2018-08-31T04:08:03.494Z,99.90
2018-08-31T04:10:31.902Z,99.90
2018-08-31T04:13:00.238Z,99.90
2018-08-31T04:15:28.588Z,99.90
2018-08-31T04:17:56.994Z,99.90
2018-08-31T04:20:25.327Z,99.90
2018-08-31T04:22:53.684Z,99.90
2018-08-31T04:25:22.014Z,99.90
2018-08-31T04:27:50.373Z,99.90
2018-08-31T04:30:18.733Z,99.90
2018-08-31T04:32:47.080Z,99.90
2018-08-31T04:35:15.440Z,99.90
2018-08-31T04:37:43.760Z,99.90
2018-08-31T04:40:12.174Z,99.90
2018-08-31T04:42:40.547Z,99.90
2018-08-31T04:45:08.899Z,99.90
2018-08-31T04:47:37.277Z,99.90
2018-08-31T04:50:05.673Z,99.90
2018-08-31T04:52:34.024Z,99.90
2018-08-31T04:55:02.365Z,99.90
2018-08-31T04:57:30.782Z,99.90
2018-08-31T04:59:59.113Z,99.90
2018-08-31T05:02:27.451Z,99.90
2018-08-31T05:04:55.842Z,99.90
2018-08-31T05:07:24.259Z,99.90
2018-08-31T05:09:52.617Z,99.90
2018-08-31T05:12:21.126Z,99.90
2018-08-31T05:14:49.466Z,99.90
2018-08-31T05:17:17.837Z,99.90
2018-08-31T05:19:46.170Z,99.90
2018-08-31T05:22:14.578Z,99.90
2018-08-31T05:24:42.911Z,99.90
2018-08-31T05:27:11.421Z,99.90
2018-08-31T05:29:39.826Z,99.90
2018-08-31T05:32:08.171Z,99.90
2018-08-31T05:34:36.604Z,99.90
2018-08-31T05:37:04.934Z,99.90
2018-08-31T05:39:33.295Z,99.90
2018-08-31T05:42:01.630Z,99.90
2018-08-31T05:44:29.975Z,99.90
2018-08-31T05:46:58.338Z,99.90
2018-08-31T05:49:27.069Z,99.90
2018-08-31T05:51:55.438Z,99.90
2018-08-31T05:54:23.792Z,99.90
2018-08-31T05:56:52.119Z,99.90
2018-08-31T05:59:20.510Z,99.90
2018-08-31T06:01:48.854Z,99.90
2018-08-31T06:04:17.430Z,99.90
2018-08-31T06:06:45.851Z,99.90
2018-08-31T06:09:14.219Z,99.90
2018-08-31T06:11:42.621Z,99.90
2018-08-31T06:14:10.975Z,99.90
2018-08-31T06:16:39.368Z,99.90
2018-08-31T06:19:07.726Z,99.90
2018-08-31T06:21:36.225Z,99.90
2018-08-31T06:24:04.620Z,99.90
2018-08-31T06:26:32.982Z,99.90
2018-08-31T06:29:01.396Z,99.90
2018-08-31T06:31:29.754Z,99.90
2018-08-31T06:33:58.215Z,99.90
2018-08-31T06:36:26.665Z,99.90
2018-08-31T06:38:55.068Z,99.90
2018-08-31T06:41:23.465Z,99.90
2018-08-31T06:43:51.912Z,99.90
2018-08-31T06:46:20.298Z,99.90
2018-08-31T06:48:48.728Z,99.90
2018-08-31T06:51:17.132Z,99.90
2018-08-31T06:53:45.502Z,99.90
2018-08-31T06:56:14.422Z,99.90
2018-08-31T06:58:42.790Z,99.90
2018-08-31T07:01:11.262Z,99.90
2018-08-31T07:03:39.634Z,99.90
2018-08-31T07:06:08.083Z,99.90
2018-08-31T07:08:36.433Z,99.90
2018-08-31T07:11:04.798Z,99.90
2018-08-31T07:13:33.166Z,99.90
2018-08-31T07:16:01.519Z,99.90
2018-08-31T07:18:29.934Z,99.90
2018-08-31T07:20:58.330Z,99.90
2018-08-31T07:23:26.735Z,99.90
2018-08-31T07:25:55.086Z,99.90
2018-08-31T07:28:23.447Z,99.90
2018-08-31T07:30:51.900Z,99.90
2018-08-31T07:33:20.494Z,99.90
2018-08-31T07:35:49.057Z,99.90
2018-08-31T07:38:17.484Z,99.90
2018-08-31T07:40:45.854Z,99.90
2018-08-31T07:43:14.226Z,99.90
2018-08-31T07:45:43.216Z,99.90
2018-08-31T07:48:12.181Z,99.90
2018-08-31T07:50:40.578Z,99.90
2018-08-31T07:53:09.059Z,99.90
2018-08-31T07:55:37.871Z,99.90
2018-08-31T07:58:06.399Z,99.90
2018-08-31T08:00:34.739Z,99.90
2018-08-31T08:03:03.094Z,99.90
2018-08-31T08:05:31.501Z,99.90
2018-08-31T08:07:59.870Z,99.90
2018-08-31T08:10:28.279Z,99.90
2018-08-31T08:12:56.616Z,99.90
2018-08-31T08:15:25.057Z,99.90
2018-08-31T08:17:53.422Z,99.90
2018-08-31T08:20:22.025Z,99.90
2018-08-31T08:22:50.423Z,99.90
2018-08-31T08:25:18.823Z,99.90
2018-08-31T08:27:47.526Z,99.90
2018-08-31T08:30:16.128Z,99.90
2018-08-31T08:32:44.623Z,99.90
2018-08-31T08:35:13.169Z,99.90
2018-08-31T08:37:41.951Z,99.90
2018-08-31T08:40:10.392Z,99.90
2018-08-31T08:50:56.734Z,99.90
2018-08-31T08:53:26.021Z,99.90
2018-08-31T08:55:54.401Z,99.90
2018-08-31T08:58:22.855Z,99.90
2018-08-31T09:00:51.415Z,99.90
2018-08-31T09:03:20.251Z,99.90
2018-08-31T09:05:48.623Z,99.90
2018-08-31T09:08:17.005Z,99.90
2018-08-31T09:10:45.446Z,99.90
2018-08-31T09:13:13.873Z,99.90
2018-08-31T09:15:42.240Z,99.90
2018-08-31T09:18:11.466Z,99.90
2018-08-31T09:20:39.842Z,99.90
2018-08-31T09:23:08.279Z,99.90
2018-08-31T09:25:36.994Z,99.90
2018-08-31T09:28:05.600Z,99.90
2018-08-31T09:30:39.473Z,99.90
2018-08-31T09:33:07.935Z,99.90
2018-08-31T09:35:36.298Z,99.60
2018-08-31T09:38:04.866Z,99.30
2018-08-31T09:40:33.227Z,99.90
2018-08-31T09:43:01.632Z,99.80
2018-08-31T09:45:30.017Z,98.00
2018-08-31T09:47:58.404Z,97.20
2018-08-31T09:50:27.084Z,95.70
2018-08-31T09:52:55.458Z,95.50
2018-08-31T09:55:23.833Z,94.00
2018-08-31T09:57:52.231Z,91.90
2018-08-31T10:00:25.959Z,90.50
2018-08-31T10:02:59.714Z,87.30
2018-08-31T10:05:28.406Z,84.60
2018-08-31T10:07:56.807Z,84.60
2018-08-31T10:10:25.207Z,83.90
2018-08-31T10:12:53.559Z,83.60
2018-08-31T10:15:22.018Z,83.30
2018-08-31T10:17:50.694Z,82.20
2018-08-31T10:20:19.109Z,82.40
2018-08-31T10:22:47.460Z,82.50
2018-08-31T10:25:15.847Z,83.20
2018-08-31T10:27:44.213Z,83.30
2018-08-31T10:30:12.679Z,84.80
2018-08-31T10:32:41.154Z,84.10
2018-08-31T10:35:09.723Z,85.40
2018-08-31T10:37:38.102Z,87.90
2018-08-31T10:40:06.504Z,88.60
2018-08-31T10:42:35.502Z,86.10
2018-08-31T10:45:04.039Z,84.10
2018-08-31T10:47:32.394Z,81.10
2018-08-31T10:50:00.775Z,79.50
2018-08-31T10:52:29.150Z,80.40
2018-08-31T10:54:57.506Z,81.20
2018-08-31T10:57:25.885Z,82.40
2018-08-31T10:59:54.281Z,83.40
2018-08-31T11:02:22.717Z,82.00
2018-08-31T11:04:51.148Z,79.90
2018-08-31T11:07:19.579Z,78.90
2018-08-31T11:09:47.952Z,76.40
2018-08-31T11:12:16.354Z,75.50
2018-08-31T11:14:44.693Z,74.20
2018-08-31T11:17:13.095Z,72.20
2018-08-31T11:19:41.537Z,71.30
2018-08-31T11:22:09.907Z,71.20
2018-08-31T11:24:38.346Z,74.40
2018-08-31T11:27:06.804Z,73.30
2018-08-31T11:29:35.149Z,72.20
2018-08-31T11:32:04.012Z,71.70
2018-08-31T11:34:32.436Z,72.00
2018-08-31T11:37:00.821Z,69.90
2018-08-31T11:39:29.230Z,66.70
2018-08-31T11:41:57.566Z,67.40
2018-08-31T11:44:25.924Z,68.30
2018-08-31T11:46:54.377Z,70.50
2018-08-31T11:49:22.798Z,72.10
2018-08-31T11:51:51.208Z,69.50
2018-08-31T11:54:19.590Z,68.90
2018-08-31T11:56:47.987Z,67.20
2018-08-31T11:59:16.412Z,67.70
2018-08-31T12:01:44.889Z,69.30
2018-08-31T12:04:13.293Z,70.00
2018-08-31T12:06:41.650Z,72.00
2018-08-31T12:09:10.490Z,72.70
2018-08-31T12:11:38.898Z,74.10
2018-08-31T12:14:07.306Z,74.60
2018-08-31T12:16:36.271Z,72.60
2018-08-31T12:19:04.715Z,70.00
2018-08-31T12:21:33.157Z,67.70
2018-08-31T12:24:01.510Z,65.10
2018-08-31T12:26:29.859Z,62.70
2018-08-31T12:28:58.260Z,65.10
2018-08-31T12:31:27.473Z,66.60
2018-08-31T12:33:55.956Z,68.70
2018-08-31T12:36:24.417Z,68.10
2018-08-31T12:38:52.794Z,68.70
2018-08-31T12:41:21.189Z,66.40
2018-08-31T12:43:49.658Z,65.80
2018-08-31T12:46:18.099Z,64.50
2018-08-31T12:48:46.498Z,62.70
2018-08-31T12:51:14.904Z,62.90
2018-08-31T12:53:43.287Z,60.70
2018-08-31T12:56:11.737Z,59.10
2018-08-31T12:58:40.119Z,58.80
2018-08-31T13:01:08.864Z,56.80
2018-08-31T13:03:37.252Z,57.60
2018-08-31T13:06:05.726Z,56.70
2018-08-31T13:08:34.150Z,56.40
2018-08-31T13:11:02.627Z,55.10
2018-08-31T13:13:30.984Z,54.30
2018-08-31T13:15:59.362Z,56.20
2018-08-31T13:18:27.740Z,57.30
2018-08-31T13:20:56.314Z,58.40
2018-08-31T13:23:24.913Z,59.80
2018-08-31T13:25:53.390Z,59.90
2018-08-31T13:28:21.819Z,60.80
2018-08-31T13:30:50.247Z,61.20
2018-08-31T13:33:18.731Z,60.50
2018-08-31T13:35:47.118Z,59.20
2018-08-31T13:38:15.574Z,57.00
2018-08-31T13:40:43.949Z,56.60
2018-08-31T13:43:12.363Z,57.00
2018-08-31T13:45:41.174Z,56.80
2018-08-31T13:48:09.569Z,56.50
2018-08-31T13:50:38.029Z,55.70
2018-08-31T13:53:06.455Z,55.00
2018-08-31T13:55:34.798Z,54.10
2018-08-31T13:58:03.318Z,52.70
2018-08-31T14:00:31.690Z,52.00
2018-08-31T14:03:00.116Z,52.00
2018-08-31T14:05:28.481Z,52.30
2018-08-31T14:07:56.852Z,51.50
2018-08-31T14:10:25.318Z,52.50
2018-08-31T14:12:53.800Z,51.90
2018-08-31T14:15:22.128Z,51.80
2018-08-31T14:17:50.511Z,51.40
2018-08-31T14:20:18.921Z,51.60
2018-08-31T14:22:47.903Z,50.60
2018-08-31T14:25:16.298Z,51.50
2018-08-31T14:27:44.674Z,51.90
2018-08-31T14:30:13.491Z,52.00
2018-08-31T14:32:41.889Z,52.70
2018-08-31T14:35:10.310Z,52.00
2018-08-31T14:37:38.691Z,52.00
2018-08-31T14:40:07.864Z,51.70
2018-08-31T14:42:36.308Z,49.70
2018-08-31T14:45:05.123Z,50.50
2018-08-31T14:47:33.537Z,51.30
2018-08-31T14:50:02.137Z,50.80
2018-08-31T14:52:30.364Z,49.90
2018-08-31T14:54:58.738Z,50.00
2018-08-31T14:57:27.306Z,49.90
2018-08-31T14:59:55.682Z,49.60
2018-08-31T15:02:24.128Z,48.80
2018-08-31T15:04:52.491Z,48.00
2018-08-31T15:07:20.869Z,47.50
2018-08-31T15:09:49.222Z,47.40
2018-08-31T15:12:17.646Z,48.00
2018-08-31T15:14:45.991Z,47.60
2018-08-31T15:17:14.401Z,48.10
2018-08-31T15:19:42.744Z,48.60
2018-08-31T15:22:11.109Z,48.60
2018-08-31T15:24:39.462Z,49.00
2018-08-31T15:27:07.962Z,49.90
2018-08-31T15:29:36.342Z,50.00
2018-08-31T15:32:04.912Z,50.20
2018-08-31T15:34:33.296Z,50.10
2018-08-31T15:37:01.676Z,50.80
2018-08-31T15:39:30.062Z,50.70
2018-08-31T15:41:58.436Z,50.50
2018-08-31T15:44:26.899Z,50.50
2018-08-31T15:46:55.282Z,50.60
2018-08-31T15:49:23.967Z,50.40
2018-08-31T15:51:52.307Z,50.60
2018-08-31T15:54:20.670Z,50.90
2018-08-31T15:56:49.026Z,51.90
2018-08-31T15:59:17.409Z,51.70
2018-08-31T16:01:45.763Z,51.70
2018-08-31T16:04:14.137Z,52.20
2018-08-31T16:06:42.515Z,52.10
2018-08-31T16:09:11.171Z,52.00
2018-08-31T16:11:39.477Z,52.10
2018-08-31T16:14:07.966Z,52.20
2018-08-31T16:16:36.428Z,52.10
2018-08-31T16:19:04.946Z,52.30
2018-08-31T16:21:33.234Z,52.30
2018-08-31T16:24:01.625Z,52.90
2018-08-31T16:26:30.104Z,53.10
2018-08-31T16:28:58.640Z,53.10
2018-08-31T16:31:27.212Z,53.20
2018-08-31T16:33:55.534Z,53.10
2018-08-31T16:36:23.986Z,53.70
2018-08-31T16:38:52.464Z,53.70
2018-08-31T16:41:20.837Z,53.50
2018-08-31T16:43:49.947Z,53.60
2018-08-31T16:46:19.118Z,53.80
2018-08-31T16:48:47.445Z,53.70
2018-08-31T16:51:15.809Z,53.70
2018-08-31T16:53:44.206Z,54.40
2018-08-31T16:56:12.615Z,54.90
2018-08-31T16:58:40.978Z,54.40
2018-08-31T17:01:09.358Z,54.70
2018-08-31T17:03:37.715Z,56.10
2018-08-31T17:06:06.356Z,56.80
2018-08-31T17:08:34.762Z,57.70
2018-08-31T17:11:03.177Z,58.20
2018-08-31T17:13:31.539Z,58.60
2018-08-31T17:15:59.911Z,58.60
2018-08-31T17:18:28.304Z,59.10
2018-08-31T17:20:56.671Z,59.40
2018-08-31T17:23:25.342Z,59.20
2018-08-31T17:25:53.755Z,60.00
2018-08-31T17:28:27.471Z,60.00
2018-08-31T17:31:01.167Z,60.30
2018-08-31T17:33:34.874Z,60.90
2018-08-31T17:36:08.573Z,61.30
2018-08-31T17:38:37.000Z,61.50
2018-08-31T17:41:05.499Z,62.50
2018-08-31T17:43:34.117Z,61.90
2018-08-31T17:46:02.813Z,62.40
2018-08-31T17:48:31.245Z,63.00
2018-08-31T17:50:59.597Z,62.90
2018-08-31T17:53:28.029Z,63.10
2018-08-31T17:55:56.915Z,63.90
2018-08-31T17:58:25.364Z,63.60
2018-08-31T18:00:53.715Z,64.70
2018-08-31T18:03:22.143Z,64.00
2018-08-31T18:05:50.560Z,64.70
2018-08-31T18:08:19.120Z,64.60
2018-08-31T18:10:47.608Z,64.50
2018-08-31T18:13:16.184Z,65.40
2018-08-31T18:15:44.617Z,65.40
2018-08-31T18:18:12.980Z,65.50
2018-08-31T18:20:41.357Z,65.90
2018-08-31T18:23:09.707Z,66.30
2018-08-31T18:25:38.158Z,67.10
2018-08-31T18:28:06.565Z,67.00
2018-08-31T18:30:34.967Z,67.10
2018-08-31T18:33:03.591Z,67.70
2018-08-31T18:35:32.322Z,68.00
2018-08-31T18:38:00.688Z,69.20
2018-08-31T18:40:29.247Z,69.10
2018-08-31T18:42:57.960Z,69.70
2018-08-31T18:45:26.448Z,70.60
2018-08-31T18:47:54.963Z,70.80
2018-08-31T18:50:23.393Z,71.10
2018-08-31T18:52:51.788Z,71.50
2018-08-31T18:55:20.225Z,72.00
2018-08-31T18:57:48.611Z,72.10
2018-08-31T19:00:17.150Z,72.80
2018-08-31T19:02:45.648Z,72.80
2018-08-31T19:05:14.616Z,72.70
2018-08-31T19:07:43.105Z,73.50
2018-08-31T19:10:11.480Z,74.00
2018-08-31T19:12:39.986Z,74.40
2018-08-31T19:15:08.446Z,74.70
2018-08-31T19:17:36.845Z,75.30
2018-08-31T19:20:05.330Z,75.40
2018-08-31T19:22:33.732Z,75.60
2018-08-31T19:25:02.186Z,76.10
2018-08-31T19:27:30.535Z,76.20
2018-08-31T19:29:59.045Z,76.30
2018-08-31T19:32:28.192Z,76.30
2018-08-31T19:34:56.575Z,76.70
2018-08-31T19:37:24.999Z,76.90
2018-08-31T19:39:53.417Z,77.50
2018-08-31T19:42:21.889Z,77.50
2018-08-31T19:44:50.275Z,77.50
2018-08-31T19:47:18.744Z,77.70
2018-08-31T19:49:47.130Z,77.80
2018-08-31T19:52:15.539Z,78.10
2018-08-31T19:54:43.907Z,78.30
2018-08-31T19:57:12.299Z,78.40
2018-08-31T19:59:41.014Z,78.70
2018-08-31T20:02:09.399Z,79.00
2018-08-31T20:04:37.752Z,79.10
2018-08-31T20:07:06.182Z,79.10
2018-08-31T20:09:34.615Z,79.40
2018-08-31T20:12:03.016Z,80.10
2018-08-31T20:14:31.448Z,80.20
2018-08-31T20:16:59.884Z,80.60
2018-08-31T20:19:28.320Z,81.70
2018-08-31T20:21:56.746Z,82.20
2018-08-31T20:24:25.376Z,81.40
2018-08-31T20:26:53.766Z,81.80
2018-08-31T20:29:22.223Z,82.30
2018-08-31T20:31:50.625Z,82.70
2018-08-31T20:34:19.022Z,82.40
2018-08-31T20:36:47.449Z,82.60
2018-08-31T20:39:15.836Z,83.00
2018-08-31T20:41:44.302Z,83.30
2018-08-31T20:44:12.805Z,83.80
2018-08-31T20:46:41.200Z,83.90
2018-08-31T20:49:09.583Z,84.00
2018-08-31T20:51:38.005Z,84.50
2018-08-31T20:54:06.409Z,84.60
2018-08-31T20:56:34.879Z,85.10
2018-08-31T20:59:03.297Z,84.90
2018-08-31T21:01:31.702Z,85.10
2018-08-31T21:04:00.209Z,85.50
2018-08-31T21:06:28.693Z,85.60
2018-08-31T21:08:57.100Z,85.60
2018-08-31T21:11:25.552Z,85.90
2018-08-31T21:13:53.907Z,86.30
2018-08-31T21:16:22.388Z,86.40
2018-08-31T21:18:50.817Z,87.40
2018-08-31T21:21:19.243Z,86.60
2018-08-31T21:23:47.669Z,86.70
2018-08-31T21:26:16.052Z,86.90
2018-08-31T21:28:44.539Z,86.90
2018-08-31T21:31:12.936Z,86.80
2018-08-31T21:33:41.464Z,88.00
2018-08-31T21:36:10.196Z,87.70
2018-08-31T21:38:38.637Z,88.00
2018-08-31T21:41:07.156Z,88.50
2018-08-31T21:43:35.500Z,88.40
2018-08-31T21:46:04.421Z,88.70
2018-08-31T21:48:32.781Z,88.90
2018-08-31T21:51:01.328Z,89.40
2018-08-31T21:53:29.752Z,90.00
2018-08-31T21:55:58.092Z,90.00
2018-08-31T21:58:26.499Z,90.30
2018-08-31T22:01:00.275Z,90.30
2018-08-31T22:03:28.632Z,90.60
2018-08-31T22:06:04.187Z,90.70
2018-08-31T22:08:32.617Z,90.90
2018-08-31T22:11:01.072Z,91.00
2018-08-31T22:13:29.514Z,91.20
2018-08-31T22:15:57.955Z,91.10
2018-08-31T22:18:26.354Z,91.30
2018-08-31T22:20:54.814Z,91.50
2018-08-31T22:23:23.194Z,91.70
2018-08-31T22:25:51.633Z,92.00
2018-08-31T22:28:20.738Z,92.20
2018-08-31T22:30:49.502Z,92.30
2018-08-31T22:33:17.863Z,92.40
2018-08-31T22:35:46.252Z,92.60
2018-08-31T22:38:14.984Z,92.90
2018-08-31T22:40:43.406Z,93.10
2018-08-31T22:43:12.310Z,93.30
2018-08-31T22:45:40.755Z,93.40
2018-08-31T22:48:09.151Z,93.70
2018-08-31T22:50:37.547Z,93.90
2018-08-31T22:53:05.914Z,94.20
2018-08-31T22:55:34.281Z,94.40
2018-08-31T22:58:02.676Z,94.60
2018-08-31T23:00:31.066Z,94.60
2018-08-31T23:02:59.682Z,94.60
2018-08-31T23:05:28.017Z,94.80
2018-08-31T23:08:02.934Z,95.00
2018-08-31T23:10:32.044Z,95.30
2018-08-31T23:13:00.542Z,95.30
2018-08-31T23:15:28.974Z,95.40
2018-08-31T23:17:57.389Z,95.50
2018-08-31T23:20:25.810Z,95.70
2018-08-31T23:23:58.012Z,95.80
2018-08-31T23:26:26.405Z,95.80
2018-08-31T23:28:55.048Z,96.00
2018-08-31T23:31:23.429Z,96.10
2018-08-31T23:33:51.770Z,96.20
2018-08-31T23:36:20.155Z,96.10
2018-08-31T23:38:48.573Z,96.30
2018-08-31T23:41:18.072Z,96.40
2018-08-31T23:43:46.437Z,96.60
2018-08-31T23:46:14.780Z,96.70
2018-08-31T23:48:43.172Z,97.00
2018-08-31T23:51:11.474Z,96.80
2018-08-31T23:53:39.836Z,97.00
2018-08-31T23:56:08.215Z,97.00
2018-08-31T23:58:36.559Z,97.10
